createdAt,value
2022-09-06T00:00:02.103Z,15.88
2022-09-06T00:01:02.093Z,15.88
2022-09-06T00:02:02.079Z,15.82
2022-09-06T00:03:02.176Z,15.79
2022-09-06T00:04:02.166Z,15.68
2022-09-06T00:05:02.041Z,15.64
2022-09-06T00:06:02.022Z,15.55
2022-09-06T00:07:02.012Z,15.55
2022-09-06T00:08:02.018Z,15.52
2022-09-06T00:09:01.984Z,15.49
2022-09-06T00:10:01.979Z,15.44
2022-09-06T00:11:01.967Z,15.40
2022-09-06T00:12:01.975Z,15.42
2022-09-06T00:13:01.946Z,15.44
2022-09-06T00:14:01.925Z,15.44
2022-09-06T00:15:01.907Z,15.47
2022-09-06T00:16:01.935Z,15.46
2022-09-06T00:17:01.880Z,15.46
2022-09-06T00:18:01.868Z,15.49
2022-09-06T00:19:02.039Z,15.51
2022-09-06T00:20:01.853Z,15.52
2022-09-06T00:21:01.830Z,15.51
2022-09-06T00:22:01.837Z,15.51
2022-09-06T00:23:01.801Z,15.51
2022-09-06T00:24:01.806Z,15.52
2022-09-06T00:25:01.781Z,15.54
2022-09-06T00:26:01.755Z,15.52
2022-09-06T00:27:01.750Z,15.54
2022-09-06T00:28:01.730Z,15.57
2022-09-06T00:29:01.839Z,15.51
2022-09-06T00:30:01.708Z,15.51
2022-09-06T00:31:01.787Z,15.47
2022-09-06T00:32:01.696Z,15.49
2022-09-06T00:33:01.662Z,15.52
2022-09-06T00:34:01.651Z,15.51
2022-09-06T00:35:01.676Z,15.54
2022-09-06T00:36:01.633Z,15.54
2022-09-06T00:37:01.628Z,15.58
2022-09-06T00:38:01.638Z,15.59
2022-09-06T00:39:01.599Z,15.59
2022-09-06T00:40:01.712Z,15.61
2022-09-06T00:41:01.575Z,15.59
2022-09-06T00:42:01.563Z,15.59
2022-09-06T00:43:01.551Z,15.58
2022-09-06T00:44:01.561Z,15.57
2022-09-06T00:45:01.526Z,15.54
2022-09-06T00:46:01.589Z,15.51
2022-09-06T00:47:01.568Z,15.49
2022-09-06T00:48:01.479Z,15.49
2022-09-06T00:49:01.466Z,15.49
2022-09-06T00:50:01.449Z,15.44
2022-09-06T00:51:01.441Z,15.46
2022-09-06T00:52:01.443Z,15.43
2022-09-06T00:53:01.412Z,15.44
2022-09-06T00:54:01.423Z,15.43
2022-09-06T00:55:01.384Z,15.43
2022-09-06T00:56:01.371Z,15.43
2022-09-06T00:57:01.357Z,15.43
2022-09-06T00:58:01.353Z,15.43
2022-09-06T00:59:01.369Z,15.37
2022-09-06T01:00:01.320Z,15.35
2022-09-06T01:01:01.308Z,15.35
2022-09-06T01:02:01.461Z,15.29
2022-09-06T01:03:01.271Z,15.31
2022-09-06T01:04:01.259Z,15.27
2022-09-06T01:05:01.260Z,15.24
2022-09-06T01:06:01.243Z,15.22
2022-09-06T01:07:01.252Z,15.21
2022-09-06T01:08:01.205Z,15.24
2022-09-06T01:09:01.227Z,15.25
2022-09-06T01:10:01.177Z,15.27
2022-09-06T01:11:01.199Z,15.29
2022-09-06T01:12:01.149Z,15.29
2022-09-06T01:13:01.149Z,15.33
2022-09-06T01:14:01.182Z,15.31
2022-09-06T01:15:01.122Z,15.24
2022-09-06T01:16:01.218Z,15.21
2022-09-06T01:17:01.097Z,15.19
2022-09-06T01:18:01.078Z,15.17
2022-09-06T01:19:01.062Z,15.17
2022-09-06T01:20:01.062Z,15.17
2022-09-06T01:21:01.027Z,15.18
2022-09-06T01:22:01.017Z,15.19
2022-09-06T01:23:01.001Z,15.19
2022-09-06T01:24:01.059Z,15.14
2022-09-06T01:25:00.996Z,15.14
2022-09-06T01:26:00.955Z,15.10
2022-09-06T01:27:00.949Z,15.09
2022-09-06T01:28:00.934Z,15.10
2022-09-06T01:29:00.921Z,15.11
2022-09-06T01:30:00.927Z,15.11
2022-09-06T01:31:00.933Z,15.14
2022-09-06T01:32:00.906Z,15.15
2022-09-06T01:33:00.869Z,15.15
2022-09-06T01:34:00.850Z,15.11
2022-09-06T01:35:00.870Z,15.10
2022-09-06T01:36:00.851Z,15.10
2022-09-06T01:37:09.920Z,15.11
2022-09-06T01:38:00.807Z,15.11
2022-09-06T01:39:00.792Z,15.14
2022-09-06T01:40:00.810Z,15.09
2022-09-06T01:41:00.806Z,15.10
2022-09-06T01:42:00.739Z,15.10
2022-09-06T01:43:00.770Z,15.11
2022-09-06T01:44:00.719Z,15.14
2022-09-06T01:45:00.708Z,15.11
2022-09-06T01:46:00.730Z,15.14
2022-09-06T01:47:00.699Z,15.14
2022-09-06T01:48:00.663Z,15.11
2022-09-06T01:49:00.650Z,15.14
2022-09-06T01:50:00.637Z,15.14
2022-09-06T01:51:00.624Z,15.11
2022-09-06T01:52:00.636Z,15.11
2022-09-06T01:53:00.607Z,15.11
2022-09-06T01:54:00.581Z,15.14
2022-09-06T01:55:00.621Z,15.09
2022-09-06T01:56:00.558Z,15.07
2022-09-06T01:57:00.578Z,15.09
2022-09-06T01:58:00.535Z,15.11
2022-09-06T01:59:00.547Z,15.11
2022-09-06T02:00:00.508Z,15.14
2022-09-06T02:01:00.498Z,15.11
2022-09-06T02:02:00.478Z,15.07
2022-09-06T02:03:00.499Z,15.07
2022-09-06T02:04:00.454Z,15.07
2022-09-06T02:05:00.439Z,15.04
2022-09-06T02:06:00.449Z,15.02
2022-09-06T02:07:00.420Z,15.00
2022-09-06T02:08:00.441Z,15.00
2022-09-06T02:09:00.384Z,15.00
2022-09-06T02:10:00.370Z,14.99
2022-09-06T02:11:00.410Z,14.97
2022-09-06T02:12:00.348Z,14.96
2022-09-06T02:13:00.363Z,14.94
2022-09-06T02:14:00.315Z,14.94
2022-09-06T02:15:00.332Z,14.91
2022-09-06T02:16:00.287Z,14.91
2022-09-06T02:17:00.345Z,14.92
2022-09-06T02:18:00.308Z,14.92
2022-09-06T02:19:00.248Z,14.92
2022-09-06T02:20:00.244Z,14.96
2022-09-06T02:21:00.234Z,14.99
2022-09-06T02:22:00.204Z,14.99
2022-09-06T02:23:00.230Z,14.97
2022-09-06T02:24:00.181Z,14.94
2022-09-06T02:25:00.191Z,14.94
2022-09-06T02:26:00.156Z,14.94
2022-09-06T02:27:00.167Z,14.96
2022-09-06T02:28:00.153Z,14.96
2022-09-06T02:29:00.114Z,14.97
2022-09-06T02:30:00.128Z,15.02
2022-09-06T02:31:00.270Z,15.04
2022-09-06T02:32:00.092Z,15.07
2022-09-06T02:33:00.102Z,15.07
2022-09-06T02:34:00.077Z,15.06
2022-09-06T02:35:00.045Z,15.03
2022-09-06T02:36:00.027Z,15.04
2022-09-06T02:37:00.010Z,15.03
2022-09-06T02:38:00.001Z,15.04
2022-09-06T02:39:00.004Z,15.03
2022-09-06T02:40:00.034Z,15.04
2022-09-06T02:40:59.978Z,15.06
2022-09-06T02:41:59.976Z,15.06
2022-09-06T02:42:59.931Z,15.04
2022-09-06T02:43:59.919Z,15.03
2022-09-06T02:44:59.904Z,15.03
2022-09-06T02:45:59.984Z,15.02
2022-09-06T02:46:59.910Z,15.03
2022-09-06T02:47:59.871Z,14.99
2022-09-06T02:48:59.851Z,14.92
2022-09-06T02:49:59.847Z,14.91
2022-09-06T02:50:59.820Z,14.89
2022-09-06T02:51:59.849Z,14.89
2022-09-06T02:52:59.802Z,14.86
2022-09-06T02:53:59.792Z,14.86
2022-09-06T02:54:59.803Z,14.85
2022-09-06T02:55:59.753Z,14.85
2022-09-06T02:56:59.758Z,14.82
2022-09-06T02:57:59.735Z,14.84
2022-09-06T02:58:59.722Z,14.81
2022-09-06T02:59:59.736Z,14.79
2022-09-06T03:00:59.740Z,14.79
2022-09-06T03:01:59.711Z,14.79
2022-09-06T03:02:59.666Z,14.79
2022-09-06T03:03:59.662Z,14.78
2022-09-06T03:04:59.666Z,14.73
2022-09-06T03:05:59.636Z,14.73
2022-09-06T03:06:59.631Z,14.73
2022-09-06T03:07:59.595Z,14.70
2022-09-06T03:08:59.586Z,14.70
2022-09-06T03:09:59.614Z,14.69
2022-09-06T03:10:59.595Z,14.70
2022-09-06T03:11:59.574Z,14.70
2022-09-06T03:12:59.537Z,14.70
2022-09-06T03:13:59.518Z,14.68
2022-09-06T03:14:59.508Z,14.68
2022-09-06T03:15:59.499Z,14.66
2022-09-06T03:16:59.582Z,14.65
2022-09-06T03:17:59.479Z,14.63
2022-09-06T03:18:59.447Z,14.66
2022-09-06T03:19:59.441Z,14.66
2022-09-06T03:20:59.423Z,14.65
2022-09-06T03:21:59.431Z,14.65
2022-09-06T03:22:59.421Z,14.65
2022-09-06T03:23:59.402Z,14.65
2022-09-06T03:24:59.369Z,14.65
2022-09-06T03:25:59.354Z,14.65
2022-09-06T03:26:59.342Z,14.62
2022-09-06T03:27:59.358Z,14.59
2022-09-06T03:28:59.319Z,14.58
2022-09-06T03:29:59.304Z,14.55
2022-09-06T03:30:59.330Z,14.55
2022-09-06T03:31:59.300Z,14.59
2022-09-06T03:33:02.546Z,14.60
2022-09-06T03:33:59.256Z,14.60
2022-09-06T03:34:59.240Z,14.62
2022-09-06T03:35:59.222Z,14.62
2022-09-06T03:36:59.249Z,14.63
2022-09-06T03:37:59.200Z,14.63
2022-09-06T03:38:59.178Z,14.62
2022-09-06T03:39:59.263Z,14.55
2022-09-06T03:40:59.167Z,14.58
2022-09-06T03:41:59.163Z,14.55
2022-09-06T03:42:59.165Z,14.59
2022-09-06T03:43:59.115Z,14.55
2022-09-06T03:44:59.105Z,14.54
2022-09-06T03:45:59.172Z,14.54
2022-09-06T03:46:59.110Z,14.54
2022-09-06T03:47:59.092Z,14.51
2022-09-06T03:48:59.043Z,14.50
2022-09-06T03:49:59.039Z,14.48
2022-09-06T03:50:59.043Z,14.47
2022-09-06T03:51:59.021Z,14.48
2022-09-06T03:52:59.023Z,14.48
2022-09-06T03:53:58.993Z,14.47
2022-09-06T03:54:58.973Z,14.47
2022-09-06T03:55:58.961Z,14.45
2022-09-06T03:56:58.946Z,14.45
2022-09-06T03:57:58.931Z,14.43
2022-09-06T03:58:58.938Z,14.43
2022-09-06T03:59:58.908Z,14.36
2022-09-06T04:00:58.932Z,14.35
2022-09-06T04:01:58.903Z,14.33
2022-09-06T04:03:01.718Z,14.35
2022-09-06T04:03:58.871Z,14.35
2022-09-06T04:04:58.834Z,14.35
2022-09-06T04:05:58.869Z,14.36
2022-09-06T04:06:58.812Z,14.36
2022-09-06T04:07:58.801Z,14.35
2022-09-06T04:08:58.815Z,14.33
2022-09-06T04:09:58.772Z,14.33
2022-09-06T04:10:58.757Z,14.30
2022-09-06T04:11:58.749Z,14.30
2022-09-06T04:12:58.732Z,14.30
2022-09-06T04:13:58.749Z,14.30
2022-09-06T04:14:58.703Z,14.30
2022-09-06T04:15:58.690Z,14.26
2022-09-06T04:16:58.741Z,14.23
2022-09-06T04:17:58.668Z,14.20
2022-09-06T04:18:58.679Z,14.22
2022-09-06T04:19:58.648Z,14.18
2022-09-06T04:20:58.623Z,14.17
2022-09-06T04:21:58.637Z,14.15
2022-09-06T04:22:58.593Z,14.15
2022-09-06T04:23:58.714Z,14.14
2022-09-06T04:24:58.576Z,14.15
2022-09-06T04:25:58.555Z,14.15
2022-09-06T04:26:58.544Z,14.14
2022-09-06T04:27:58.534Z,14.12
2022-09-06T04:28:58.514Z,14.15
2022-09-06T04:29:58.529Z,14.23
2022-09-06T04:31:03.320Z,14.29
2022-09-06T04:31:58.547Z,14.28
2022-09-06T04:32:58.504Z,14.32
2022-09-06T04:33:58.475Z,14.32
2022-09-06T04:34:58.443Z,14.35
2022-09-06T04:35:58.422Z,14.33
2022-09-06T04:36:58.426Z,14.32
2022-09-06T04:37:58.403Z,14.37
2022-09-06T04:38:58.378Z,14.36
2022-09-06T04:39:58.428Z,14.35
2022-09-06T04:40:58.440Z,14.32
2022-09-06T04:41:58.341Z,14.33
2022-09-06T04:42:58.358Z,14.32
2022-09-06T04:43:58.323Z,14.35
2022-09-06T04:44:58.393Z,14.30
2022-09-06T04:45:58.359Z,14.33
2022-09-06T04:46:58.275Z,14.35
2022-09-06T04:47:58.296Z,14.41
2022-09-06T04:48:58.256Z,14.43
2022-09-06T04:49:58.239Z,14.43
2022-09-06T04:50:58.219Z,14.43
2022-09-06T04:51:58.212Z,14.44
2022-09-06T04:52:58.198Z,14.44
2022-09-06T04:53:58.204Z,14.47
2022-09-06T04:54:58.169Z,14.47
2022-09-06T04:55:58.181Z,14.48
2022-09-06T04:56:58.138Z,14.47
2022-09-06T04:57:58.126Z,14.45
2022-09-06T04:58:58.195Z,14.45
2022-09-06T04:59:58.106Z,14.43
2022-09-06T05:00:58.183Z,14.41
2022-09-06T05:01:58.117Z,14.40
2022-09-06T05:02:58.087Z,14.37
2022-09-06T05:03:58.053Z,14.36
2022-09-06T05:04:58.034Z,14.35
2022-09-06T05:05:58.046Z,14.32
2022-09-06T05:06:58.007Z,14.29
2022-09-06T05:07:57.995Z,14.29
2022-09-06T05:08:58.010Z,14.29
2022-09-06T05:09:57.966Z,14.29
2022-09-06T05:10:57.968Z,14.32
2022-09-06T05:11:57.941Z,14.32
2022-09-06T05:12:57.966Z,14.32
2022-09-06T05:13:57.992Z,14.33
2022-09-06T05:14:57.891Z,14.33
2022-09-06T05:15:57.908Z,14.37
2022-09-06T05:16:57.936Z,14.40
2022-09-06T05:17:57.884Z,14.40
2022-09-06T05:18:57.844Z,14.43
2022-09-06T05:19:57.828Z,14.45
2022-09-06T05:20:57.817Z,14.44
2022-09-06T05:21:57.815Z,14.44
2022-09-06T05:22:57.819Z,14.47
2022-09-06T05:23:58.790Z,14.47
2022-09-06T05:24:57.772Z,14.50
2022-09-06T05:25:57.778Z,14.48
2022-09-06T05:26:57.736Z,14.50
2022-09-06T05:27:57.737Z,14.50
2022-09-06T05:28:57.771Z,14.51
2022-09-06T05:29:57.719Z,14.51
2022-09-06T05:30:57.702Z,14.51
2022-09-06T05:31:57.758Z,14.51
2022-09-06T05:32:57.719Z,14.53
2022-09-06T05:33:57.681Z,14.55
2022-09-06T05:34:57.643Z,14.58
2022-09-06T05:35:57.615Z,14.60
2022-09-06T05:36:57.597Z,14.63
2022-09-06T05:37:57.591Z,14.60
2022-09-06T05:38:57.604Z,14.63
2022-09-06T05:39:57.695Z,14.65
2022-09-06T05:40:57.543Z,14.66
2022-09-06T05:41:57.551Z,14.70
2022-09-06T05:42:57.582Z,14.73
2022-09-06T05:43:57.534Z,14.77
2022-09-06T05:44:57.503Z,14.81
2022-09-06T05:45:57.538Z,14.81
2022-09-06T05:46:57.462Z,14.84
2022-09-06T05:47:57.482Z,14.86
2022-09-06T05:48:57.433Z,14.92
2022-09-06T05:49:57.432Z,14.92
2022-09-06T05:50:57.408Z,14.96
2022-09-06T05:51:57.432Z,14.96
2022-09-06T05:52:57.385Z,14.97
2022-09-06T05:53:57.399Z,15.02
2022-09-06T05:54:57.365Z,15.03
2022-09-06T05:55:57.344Z,15.04
2022-09-06T05:56:57.338Z,15.07
2022-09-06T05:57:57.347Z,15.14
2022-09-06T05:58:57.308Z,15.18
2022-09-06T05:59:57.308Z,15.21
2022-09-06T06:00:57.295Z,15.24
2022-09-06T06:01:57.384Z,15.25
2022-09-06T06:02:57.301Z,15.28
2022-09-06T06:03:57.307Z,15.33
2022-09-06T06:04:57.333Z,15.39
2022-09-06T06:05:57.220Z,15.54
2022-09-06T06:06:57.213Z,15.76
2022-09-06T06:07:57.189Z,15.90
2022-09-06T06:08:57.207Z,15.95
2022-09-06T06:09:57.155Z,15.94
2022-09-06T06:10:57.167Z,15.95
2022-09-06T06:11:57.135Z,15.98
2022-09-06T06:12:57.140Z,15.98
2022-09-06T06:13:57.115Z,16.02
2022-09-06T06:14:57.120Z,16.12
2022-09-06T06:15:57.097Z,16.50
2022-09-06T06:16:57.179Z,17.14
2022-09-06T06:17:57.089Z,17.87
2022-09-06T06:18:57.039Z,18.56
2022-09-06T06:19:57.036Z,19.18
2022-09-06T06:20:57.013Z,19.84
2022-09-06T06:21:57.071Z,20.34
2022-09-06T06:22:57.007Z,20.72
2022-09-06T06:23:56.981Z,21.05
2022-09-06T06:24:56.987Z,21.45
2022-09-06T06:25:56.944Z,21.79
2022-09-06T06:26:56.959Z,21.70
2022-09-06T06:27:56.911Z,21.42
2022-09-06T06:28:56.930Z,20.97
2022-09-06T06:29:56.909Z,20.32
2022-09-06T06:30:56.888Z,20.03
2022-09-06T06:31:56.934Z,19.81
2022-09-06T06:32:56.848Z,19.63
2022-09-06T06:33:56.837Z,19.47
2022-09-06T06:34:56.832Z,19.34
2022-09-06T06:35:56.834Z,19.15
2022-09-06T06:36:56.801Z,19.04
2022-09-06T06:37:56.809Z,19.00
2022-09-06T06:38:56.771Z,18.95
2022-09-06T06:39:56.844Z,19.00
2022-09-06T06:41:00.176Z,19.40
2022-09-06T06:41:56.749Z,20.11
2022-09-06T06:42:56.727Z,20.99
2022-09-06T06:43:56.711Z,21.54
2022-09-06T06:44:56.718Z,21.67
2022-09-06T06:45:56.720Z,21.67
2022-09-06T06:46:56.671Z,21.72
2022-09-06T06:47:56.652Z,21.61
2022-09-06T06:48:56.641Z,21.27
2022-09-06T06:49:56.649Z,21.12
2022-09-06T06:50:56.613Z,21.02
2022-09-06T06:51:56.616Z,20.88
2022-09-06T06:52:56.624Z,20.65
2022-09-06T06:53:56.575Z,20.44
2022-09-06T06:54:56.566Z,20.29
2022-09-06T06:55:56.556Z,20.18
2022-09-06T06:56:56.536Z,20.10
2022-09-06T06:57:56.555Z,20.07
2022-09-06T06:58:56.505Z,20.02
2022-09-06T06:59:56.494Z,20.03
2022-09-06T07:00:56.637Z,20.04
2022-09-06T07:01:56.542Z,19.99
2022-09-06T07:02:56.456Z,19.94
2022-09-06T07:03:56.454Z,19.81
2022-09-06T07:04:56.424Z,19.69
2022-09-06T07:06:12.610Z,19.56
2022-09-06T07:07:56.404Z,19.40
2022-09-06T07:08:56.374Z,19.34
2022-09-06T07:10:56.351Z,19.22
2022-09-06T07:11:56.374Z,19.14
2022-09-06T07:12:56.320Z,19.11
2022-09-06T07:13:56.355Z,19.02
2022-09-06T07:14:56.293Z,18.98
2022-09-06T07:15:56.344Z,18.95
2022-09-06T07:16:56.296Z,18.90
2022-09-06T07:17:56.252Z,18.89
2022-09-06T07:18:56.243Z,18.96
2022-09-06T07:21:56.204Z,19.27
2022-09-06T07:22:56.346Z,19.29
2022-09-06T07:24:11.603Z,19.29
2022-09-06T07:24:56.167Z,19.29
2022-09-06T07:25:56.142Z,19.29
2022-09-06T07:27:56.142Z,19.30
2022-09-06T07:28:56.108Z,19.27
2022-09-06T07:29:56.110Z,19.24
2022-09-06T07:30:56.103Z,19.16
2022-09-06T07:32:11.631Z,19.11
2022-09-06T07:32:56.063Z,19.00
2022-09-06T07:33:56.032Z,18.93
2022-09-06T07:34:56.022Z,18.90
2022-09-06T07:35:56.035Z,18.88
2022-09-06T07:36:56.000Z,18.84
2022-09-06T07:37:55.993Z,18.83
2022-09-06T07:38:55.973Z,18.81
2022-09-06T07:39:56.084Z,18.83
2022-09-06T07:40:55.958Z,18.83
2022-09-06T07:41:55.936Z,18.84
2022-09-06T07:42:55.920Z,18.83
2022-09-06T07:43:55.920Z,18.83
2022-09-06T07:44:55.897Z,18.83
2022-09-06T07:45:55.945Z,18.83
2022-09-06T07:47:59.051Z,18.86
2022-09-06T07:48:55.847Z,18.89
2022-09-06T07:50:58.957Z,18.89
2022-09-06T07:51:55.825Z,18.84
2022-09-06T07:53:15.051Z,18.83
2022-09-06T07:54:12.771Z,18.83
2022-09-06T07:54:55.768Z,18.84
2022-09-06T07:55:55.736Z,18.86
2022-09-06T07:56:55.737Z,18.84
2022-09-06T07:57:55.720Z,18.88
2022-09-06T07:58:55.730Z,18.89
2022-09-06T07:59:55.699Z,18.88
2022-09-06T08:00:55.704Z,18.88
2022-09-06T08:01:55.741Z,18.84
2022-09-06T08:02:55.656Z,18.83
2022-09-06T08:03:55.661Z,18.83
2022-09-06T08:04:55.632Z,18.83
2022-09-06T08:06:11.155Z,18.81
2022-09-06T08:09:55.559Z,18.89
2022-09-06T08:10:55.546Z,18.95
2022-09-06T08:11:55.534Z,19.00
2022-09-06T08:12:55.518Z,19.07
2022-09-06T08:13:55.564Z,19.07
2022-09-06T08:14:55.498Z,19.14
2022-09-06T08:15:55.501Z,19.21
2022-09-06T08:16:55.462Z,19.22
2022-09-06T08:17:55.460Z,19.26
2022-09-06T08:18:55.464Z,19.26
2022-09-06T08:19:55.455Z,19.26
2022-09-06T08:20:55.421Z,19.26
2022-09-06T08:21:55.428Z,19.22
2022-09-06T08:22:55.416Z,19.22
2022-09-06T08:23:55.398Z,19.22
2022-09-06T08:24:55.370Z,19.24
2022-09-06T08:25:55.349Z,19.24
2022-09-06T08:26:55.336Z,19.26
2022-09-06T08:27:55.343Z,19.24
2022-09-06T08:28:55.306Z,19.30
2022-09-06T08:29:55.293Z,19.39
2022-09-06T08:30:55.284Z,19.45
2022-09-06T08:31:55.379Z,19.55
2022-09-06T08:32:55.255Z,19.63
2022-09-06T08:33:55.238Z,19.69
2022-09-06T08:34:55.230Z,19.74
2022-09-06T08:35:55.236Z,19.81
2022-09-06T08:36:55.207Z,19.85
2022-09-06T08:37:55.193Z,19.89
2022-09-06T08:38:55.168Z,19.92
2022-09-06T08:39:55.194Z,19.99
2022-09-06T08:40:55.178Z,20.02
2022-09-06T08:41:55.134Z,20.03
2022-09-06T08:42:55.130Z,20.07
2022-09-06T08:44:57.573Z,20.13
2022-09-06T08:45:55.866Z,20.16
2022-09-06T08:46:55.191Z,20.21
2022-09-06T08:47:55.057Z,20.21
2022-09-06T08:48:55.038Z,20.25
2022-09-06T08:49:55.024Z,20.28
2022-09-06T08:50:55.013Z,20.31
2022-09-06T08:51:55.010Z,20.29
2022-09-06T08:53:15.663Z,20.32
2022-09-06T08:53:54.981Z,20.34
2022-09-06T08:54:54.966Z,20.29
2022-09-06T08:55:54.986Z,20.26
2022-09-06T08:56:54.956Z,20.21
2022-09-06T08:57:54.934Z,20.14
2022-09-06T08:58:54.909Z,20.11
2022-09-06T08:59:54.895Z,20.09
2022-09-06T09:00:54.963Z,20.06
2022-09-06T09:01:54.892Z,20.03
2022-09-06T09:02:54.887Z,20.03
2022-09-06T09:03:54.834Z,20.03
2022-09-06T09:04:54.837Z,20.03
2022-09-06T09:05:54.808Z,20.06
2022-09-06T09:06:54.822Z,20.07
2022-09-06T09:07:54.815Z,20.11
2022-09-06T09:08:54.803Z,20.11
2022-09-06T09:09:54.761Z,20.14
2022-09-06T09:10:54.750Z,20.16
2022-09-06T09:11:54.734Z,20.21
2022-09-06T09:12:54.951Z,20.22
2022-09-06T09:13:56.089Z,20.22
2022-09-06T09:14:54.714Z,20.28
2022-09-06T09:15:54.770Z,20.28
2022-09-06T09:16:54.691Z,20.26
2022-09-06T09:17:54.644Z,20.28
2022-09-06T09:18:54.711Z,20.28
2022-09-06T09:19:54.626Z,20.31
2022-09-06T09:20:54.648Z,20.29
2022-09-06T09:21:54.593Z,20.24
2022-09-06T09:22:54.610Z,20.19
2022-09-06T09:23:54.570Z,20.16
2022-09-06T09:24:54.547Z,20.14
2022-09-06T09:25:54.549Z,20.06
2022-09-06T09:26:54.558Z,20.06
2022-09-06T09:27:54.510Z,20.04
2022-09-06T09:28:54.540Z,20.06
2022-09-06T09:30:54.510Z,20.07
2022-09-06T09:31:54.592Z,20.07
2022-09-06T09:32:54.482Z,20.07
2022-09-06T09:33:54.449Z,20.02
2022-09-06T09:34:54.436Z,19.95
2022-09-06T09:35:54.439Z,19.91
2022-09-06T09:37:59.132Z,19.85
2022-09-06T09:38:54.409Z,19.82
2022-09-06T09:39:54.387Z,19.81
2022-09-06T09:40:54.340Z,19.79
2022-09-06T09:41:54.327Z,19.76
2022-09-06T09:42:54.341Z,19.74
2022-09-06T09:43:54.328Z,19.74
2022-09-06T09:44:54.292Z,19.76
2022-09-06T09:45:54.264Z,19.77
2022-09-06T09:46:54.323Z,19.81
2022-09-06T09:47:54.250Z,19.82
2022-09-06T09:48:54.266Z,19.82
2022-09-06T09:49:54.223Z,19.84
2022-09-06T09:50:54.210Z,19.84
2022-09-06T09:51:54.191Z,19.86
2022-09-06T09:52:54.186Z,19.89
2022-09-06T09:53:54.190Z,19.94
2022-09-06T09:54:54.154Z,19.99
2022-09-06T09:55:54.148Z,20.04
2022-09-06T09:56:54.148Z,20.11
2022-09-06T09:57:54.115Z,20.18
2022-09-06T09:58:54.132Z,20.25
2022-09-06T09:59:54.092Z,20.31
2022-09-06T10:00:54.177Z,20.40
2022-09-06T10:01:54.098Z,20.51
2022-09-06T10:02:54.050Z,20.60
2022-09-06T10:04:54.039Z,20.88
2022-09-06T10:05:56.380Z,21.02
2022-09-06T10:07:09.865Z,21.15
2022-09-06T10:07:53.981Z,21.24
2022-09-06T10:08:53.979Z,21.36
2022-09-06T10:09:53.975Z,21.43
2022-09-06T10:10:53.946Z,21.50
2022-09-06T10:11:53.944Z,21.57
2022-09-06T10:12:53.919Z,21.61
2022-09-06T10:13:53.900Z,21.72
2022-09-06T10:14:53.924Z,21.80
2022-09-06T10:15:53.972Z,21.91
2022-09-06T10:16:53.862Z,22.02
2022-09-06T10:17:53.845Z,22.11
2022-09-06T10:18:53.861Z,22.13
2022-09-06T10:19:53.844Z,22.15
2022-09-06T10:20:53.814Z,22.23
2022-09-06T10:21:53.808Z,22.28
2022-09-06T10:22:53.798Z,22.35
2022-09-06T10:24:53.792Z,22.53
2022-09-06T10:25:53.762Z,22.57
2022-09-06T10:26:53.731Z,22.63
2022-09-06T10:28:10.355Z,22.70
2022-09-06T10:28:53.708Z,22.73
2022-09-06T10:29:53.687Z,22.81
2022-09-06T10:30:53.742Z,22.85
2022-09-06T10:31:53.669Z,22.88
2022-09-06T10:32:53.676Z,22.91
2022-09-06T10:33:53.656Z,23.09
2022-09-06T10:34:53.635Z,23.36
2022-09-06T10:35:53.615Z,23.65
2022-09-06T10:36:53.631Z,23.88
2022-09-06T10:37:53.590Z,24.10
2022-09-06T10:38:53.596Z,24.24
2022-09-06T10:39:53.616Z,24.40
2022-09-06T10:40:53.558Z,24.50
2022-09-06T10:41:53.523Z,24.50
2022-09-06T10:42:53.515Z,24.43
2022-09-06T10:43:53.529Z,24.36
2022-09-06T10:44:53.490Z,24.29
2022-09-06T10:45:53.512Z,24.20
2022-09-06T10:46:53.500Z,24.17
2022-09-06T10:47:53.455Z,24.16
2022-09-06T10:48:53.435Z,24.18
2022-09-06T10:49:53.420Z,24.26
2022-09-06T10:50:53.440Z,24.33
2022-09-06T10:51:53.423Z,24.45
2022-09-06T10:52:53.381Z,24.50
2022-09-06T10:53:53.369Z,24.57
2022-09-06T10:54:53.358Z,24.77
2022-09-06T10:55:53.346Z,24.99
2022-09-06T10:56:53.354Z,25.04
2022-09-06T10:59:53.312Z,25.13
2022-09-06T11:00:53.276Z,25.01
2022-09-06T11:01:53.413Z,24.93
2022-09-06T11:03:58.371Z,25.14
2022-09-06T11:05:53.227Z,25.25
2022-09-06T11:06:53.186Z,25.25
2022-09-06T11:08:53.536Z,25.51
2022-09-06T11:09:53.168Z,25.87
2022-09-06T11:10:53.154Z,26.22
2022-09-06T11:11:53.154Z,26.47
2022-09-06T11:12:53.143Z,26.71
2022-09-06T11:13:53.127Z,26.80
2022-09-06T11:14:53.090Z,26.99
2022-09-06T11:15:53.149Z,27.29
2022-09-06T11:16:53.079Z,27.21
2022-09-06T11:17:53.116Z,27.17
2022-09-06T11:18:53.057Z,27.14
2022-09-06T11:19:53.065Z,27.15
2022-09-06T11:20:53.055Z,27.08
2022-09-06T11:21:53.015Z,26.96
2022-09-06T11:22:53.018Z,26.95
2022-09-06T11:23:53.002Z,27.11
2022-09-06T11:24:52.964Z,27.21
2022-09-06T11:25:52.981Z,27.27
2022-09-06T11:26:52.935Z,27.32
2022-09-06T11:27:57.325Z,27.26
2022-09-06T11:28:52.922Z,27.37
2022-09-06T11:29:52.897Z,27.58
2022-09-06T11:30:52.955Z,27.67
2022-09-06T11:32:52.872Z,28.27
2022-09-06T11:33:52.873Z,28.26
2022-09-06T11:34:52.831Z,28.26
2022-09-06T11:35:52.829Z,28.12
2022-09-06T11:36:52.801Z,27.95
2022-09-06T11:37:52.825Z,27.82
2022-09-06T11:38:52.804Z,27.70
2022-09-06T11:40:52.764Z,27.47
2022-09-06T11:41:52.746Z,27.35
2022-09-06T11:42:52.751Z,27.26
2022-09-06T11:43:52.722Z,27.15
2022-09-06T11:44:52.722Z,27.14
2022-09-06T11:45:52.708Z,27.18
2022-09-06T11:46:52.798Z,27.32
2022-09-06T11:47:52.678Z,27.60
2022-09-06T11:48:52.649Z,27.96
2022-09-06T11:49:52.663Z,28.23
2022-09-06T11:50:52.655Z,28.35
2022-09-06T11:51:52.627Z,28.48
2022-09-06T11:52:52.599Z,28.70
2022-09-06T11:53:52.610Z,28.91
2022-09-06T11:54:52.601Z,29.08
2022-09-06T11:55:52.561Z,29.22
2022-09-06T11:56:52.538Z,29.45
2022-09-06T11:57:52.546Z,29.61
2022-09-06T11:58:52.537Z,29.65
2022-09-06T11:59:52.541Z,29.59
2022-09-06T12:00:52.504Z,29.29
2022-09-06T12:01:52.490Z,28.98
2022-09-06T12:02:53.224Z,28.81
2022-09-06T12:04:08.520Z,28.67
2022-09-06T12:04:52.465Z,28.59
2022-09-06T12:05:52.440Z,28.52
2022-09-06T12:06:52.449Z,28.49
2022-09-06T12:07:52.424Z,28.44
2022-09-06T12:08:52.386Z,28.41
2022-09-06T12:09:52.390Z,28.38
2022-09-06T12:10:52.406Z,28.39
2022-09-06T12:11:52.349Z,28.42
2022-09-06T12:12:52.342Z,28.45
2022-09-06T12:13:52.363Z,28.69
2022-09-06T12:14:52.331Z,28.74
2022-09-06T12:15:52.383Z,28.88
2022-09-06T12:16:52.314Z,29.01
2022-09-06T12:17:52.300Z,29.05
2022-09-06T12:18:52.265Z,29.14
2022-09-06T12:19:52.256Z,29.17
2022-09-06T12:20:52.243Z,29.24
2022-09-06T12:21:52.231Z,29.27
2022-09-06T12:22:52.225Z,29.24
2022-09-06T12:23:52.227Z,29.22
2022-09-06T12:24:52.184Z,29.20
2022-09-06T12:25:52.177Z,28.94
2022-09-06T12:26:55.731Z,28.81
2022-09-06T12:27:52.171Z,28.79
2022-09-06T12:28:52.220Z,28.78
2022-09-06T12:29:52.135Z,28.89
2022-09-06T12:30:52.214Z,28.91
2022-09-06T12:31:52.213Z,28.97
2022-09-06T12:32:52.117Z,28.97
2022-09-06T12:33:52.089Z,28.98
2022-09-06T12:35:58.348Z,29.02
2022-09-06T12:36:52.215Z,29.10
2022-09-06T12:37:52.024Z,29.14
2022-09-06T12:38:52.037Z,29.08
2022-09-06T12:39:52.026Z,28.97
2022-09-06T12:40:52.006Z,29.04
2022-09-06T12:41:51.996Z,29.04
2022-09-06T12:42:51.959Z,29.16
2022-09-06T12:43:51.949Z,29.14
2022-09-06T12:44:51.963Z,29.17
2022-09-06T12:45:51.924Z,29.29
2022-09-06T12:46:51.986Z,29.38
2022-09-06T12:47:51.902Z,29.44
2022-09-06T12:48:51.888Z,29.51
2022-09-06T12:49:51.865Z,29.51
2022-09-06T12:50:51.857Z,29.56
2022-09-06T12:51:51.875Z,29.59
2022-09-06T12:52:51.841Z,29.59
2022-09-06T12:53:51.843Z,29.66
2022-09-06T12:54:51.789Z,29.65
2022-09-06T12:55:51.800Z,29.63
2022-09-06T12:56:51.776Z,29.69
2022-09-06T12:57:51.759Z,29.71
2022-09-06T12:58:51.778Z,29.82
2022-09-06T12:59:51.747Z,29.91
2022-09-06T13:00:51.759Z,29.98
2022-09-06T13:01:51.897Z,30.06
2022-09-06T13:02:51.856Z,30.27
2022-09-06T13:03:51.719Z,30.32
2022-09-06T13:04:51.677Z,30.47
2022-09-06T13:05:51.696Z,30.48
2022-09-06T13:06:51.650Z,30.44
2022-09-06T13:07:51.647Z,30.23
2022-09-06T13:08:51.650Z,30.18
2022-09-06T13:09:51.609Z,30.23
2022-09-06T13:10:51.604Z,30.31
2022-09-06T13:11:51.602Z,30.43
2022-09-06T13:12:51.603Z,30.65
2022-09-06T13:13:51.564Z,30.68
2022-09-06T13:14:51.554Z,30.80